Tropical Cyclones
[Index]
Main Index Home Page Stock Weather Photos Extreme Storms Discussion Storm News and Storm Chasing Reports Tropical Cyclones / Hurricanes / Typhoons Weather Data and Links Wild Fires / Bushfires Weather Observation Techniques Weather Picture Catalogue Tornado Pictures and Reports Stock Video Footage and DVDs for sale
Season 1981-1982 Tropical Cyclone DOMINIC Track Map
Season 1981-1982 Summaries: [BoM-AU] [JTWC-AU] [JTWC-SIO] [JTWC-SPAC] [JTWC-SH]
<<- Previous TC | BoM 1981-1982 Season | Next TC ->>

click for intensity scale information  Lat/long Grid: Show Hide

 Date Labels: Show Hide

Bureau of Meteorology Tropical Cyclone Data

Name: DOMINIC
Number: 634 / 198182_15

04 Apr 1982 21:00 UTC to 14 Apr 1982 09:00 UTC

    date/time    lat    long    hPa   cat  kts
1982-04-04 21   11.4   139.7   1002                     
1982-04-05 00   11.5   139.6   1000                     
1982-04-05 03   11.6   139.5    998                     
1982-04-05 06   11.5   139.3    994    1                
1982-04-05 09   11.3   139.2    990    1                
1982-04-05 12   11.2   139.3    990    1                
1982-04-05 15   11.4   139.3    988    1                
1982-04-05 18   11.5   139.4    986    1                
1982-04-05 21   11.7   139.4    984    2                
1982-04-06 00   11.8   139.4    982    2                
1982-04-06 03   12.1   139.4    980    2                
1982-04-06 06   12.3   139.5    977    2                
1982-04-06 09   12.6   139.6    974    2                
1982-04-06 12   12.9   139.8    972    2                
1982-04-06 15   13.0   140.0    968    3                
1982-04-06 18   13.1   140.1    965    3                
1982-04-06 21   13.3   140.2    962    3                
1982-04-07 00   13.8   140.3    960    3                
1982-04-07 03   14.1   140.4    958    3                
1982-04-07 06   14.2   140.8    955    4                
1982-04-07 09   14.3   141.1    950    4                
1982-04-07 12   14.4   141.4    950    4                
1982-04-07 15   14.5   141.9    970    3                
1982-04-07 18   14.6   142.3    980    2                
1982-04-07 21   14.7   142.6    990    1                
1982-04-08 00   14.7   143.1    995    1                
1982-04-08 03   14.7   143.6    997                     
1982-04-08 06   14.6   144.2    998                     
1982-04-08 07   14.5   144.6    999                     
1982-04-08 09   14.7   145.1    999                     
1982-04-08 12   15.0   145.6   1002                     
1982-04-08 15   15.1   146.0   1001                     
1982-04-08 18   15.1   146.3   1000                     
1982-04-08 21   15.0   146.6   1000                     
1982-04-09 00   15.0   147.0   1000                     
1982-04-09 03   14.9   147.5   1000                     
1982-04-09 06   14.8   147.9    999                     
1982-04-09 12   14.6   148.8    998                     
1982-04-09 18   14.3   149.4    998                     
1982-04-10 00   14.0   150.0    997                     
1982-04-10 06   13.9   150.7    996                     
1982-04-10 12   13.9   151.4    997                     
1982-04-10 18   14.1   152.0    997                     
1982-04-11 00   14.3   152.2   1000                     
1982-04-11 06   14.4   152.3   1000                     
1982-04-11 12   14.6   152.5   1000                     
1982-04-11 18   14.8   152.5   1001                     
1982-04-12 00   15.0   152.3   1002                     
1982-04-12 06   15.2   152.2   1001                     
1982-04-12 12   15.5   152.0   1001                     
1982-04-12 18   16.1   151.6   1003                     
1982-04-13 00   16.9   150.9   1004                     
1982-04-13 06   17.6   149.6   1004                     
1982-04-13 09   17.3   148.8   1005                     
1982-04-13 12   16.8   148.0   1006                     
1982-04-13 15   16.4   147.2   1006                     
1982-04-13 18   16.0   146.8   1006                     
1982-04-13 21   15.8   146.4   1006                     
1982-04-14 00   15.6   146.1   1006                     
1982-04-14 03   15.1   145.4   1008                     
1982-04-14 06   15.4   144.5   1008                     
1982-04-14 09   15.9   143.9   1010                     
Winds are 10-min average.

Tropical cyclone tracks developed by Michael Bath using data from the Bureau of Meteorology and Google Maps.


[Australian Severe Weather index] [Copyright Notice] [Email Contacts] [Search This Site] [Privacy Policy]
Document: tropical_cyclone_dominic.htm Updated: 30 May 2013